sensor_id;sensor_type;location;lat;lon;timestamp;pressure;altitude;pressure_sealevel;temperature;humidity
37304;BME280;23188;51.188;16.374;2023-03-04T00:01:45;100454.09;;;2.05;100.00
37304;BME280;23188;51.188;16.374;2023-03-04T00:05:49;100445.58;;;2.04;100.00
37304;BME280;23188;51.188;16.374;2023-03-04T00:09:52;100445.63;;;2.11;100.00
37304;BME280;23188;51.188;16.374;2023-03-04T00:13:56;100433.98;;;2.13;100.00
37304;BME280;23188;51.188;16.374;2023-03-04T00:17:59;100423.08;;;2.19;100.00
37304;BME280;23188;51.188;16.374;2023-03-04T00:22:03;100411.89;;;2.18;100.00
37304;BME280;23188;51.188;16.374;2023-03-04T00:26:06;100408.17;;;2.15;100.00
37304;BME280;23188;51.188;16.374;2023-03-04T00:30:11;100399.36;;;2.25;100.00
37304;BME280;23188;51.188;16.374;2023-03-04T00:34:15;100401.48;;;2.24;100.00
37304;BME280;23188;51.188;16.374;2023-03-04T00:38:18;100397.77;;;2.21;100.00
37304;BME280;23188;51.188;16.374;2023-03-04T00:42:21;100403.77;;;2.20;100.00
37304;BME280;23188;51.188;16.374;2023-03-04T00:46:24;100395.55;;;2.28;100.00
37304;BME280;23188;51.188;16.374;2023-03-04T00:50:27;100369.42;;;2.29;100.00
37304;BME280;23188;51.188;16.374;2023-03-04T00:54:30;100366.06;;;2.29;100.00
37304;BME280;23188;51.188;16.374;2023-03-04T00:58:34;100357.55;;;2.20;100.00
37304;BME280;23188;51.188;16.374;2023-03-04T01:02:37;100347.61;;;2.20;100.00
37304;BME280;23188;51.188;16.374;2023-03-04T01:06:40;100347.38;;;2.21;100.00
37304;BME280;23188;51.188;16.374;2023-03-04T01:10:44;100336.31;;;2.14;99.96
37304;BME280;23188;51.188;16.374;2023-03-04T01:14:47;100330.80;;;2.08;100.00
37304;BME280;23188;51.188;16.374;2023-03-04T01:18:51;100333.16;;;2.18;99.77
37304;BME280;23188;51.188;16.374;2023-03-04T01:22:54;100319.48;;;2.15;98.78
37304;BME280;23188;51.188;16.374;2023-03-04T01:26:57;100322.06;;;2.16;98.82
37304;BME280;23188;51.188;16.374;2023-03-04T01:31:02;100330.68;;;2.19;98.94
37304;BME280;23188;51.188;16.374;2023-03-04T01:35:05;100337.66;;;2.19;99.73
37304;BME280;23188;51.188;16.374;2023-03-04T01:39:09;100326.61;;;2.12;98.90
37304;BME280;23188;51.188;16.374;2023-03-04T01:43:20;100331.31;;;1.85;99.07
37304;BME280;23188;51.188;16.374;2023-03-04T01:47:27;100315.63;;;1.80;99.91
37304;BME280;23188;51.188;16.374;2023-03-04T01:51:30;100322.63;;;1.80;99.99
37304;BME280;23188;51.188;16.374;2023-03-04T01:55:34;100313.86;;;1.84;99.94
37304;BME280;23188;51.188;16.374;2023-03-04T01:59:37;100301.63;;;1.80;99.75
37304;BME280;23188;51.188;16.374;2023-03-04T02:03:40;100299.76;;;1.83;99.58
37304;BME280;23188;51.188;16.374;2023-03-04T02:07:43;100292.09;;;1.78;99.80
37304;BME280;23188;51.188;16.374;2023-03-04T02:11:48;100292.08;;;1.90;99.67
37304;BME280;23188;51.188;16.374;2023-03-04T02:15:52;100295.45;;;1.93;99.05
37304;BME280;23188;51.188;16.374;2023-03-04T02:20:06;100290.08;;;2.00;98.98
37304;BME280;23188;51.188;16.374;2023-03-04T02:28:27;100276.63;;;1.92;97.88
37304;BME280;23188;51.188;16.374;2023-03-04T02:32:30;100280.40;;;2.01;97.35
37304;BME280;23188;51.188;16.374;2023-03-04T02:36:34;100282.79;;;1.95;96.95
37304;BME280;23188;51.188;16.374;2023-03-04T02:40:40;100282.41;;;1.88;97.11
37304;BME280;23188;51.188;16.374;2023-03-04T02:44:45;100289.43;;;2.02;97.45
37304;BME280;23188;51.188;16.374;2023-03-04T02:48:51;100280.87;;;2.06;96.08
37304;BME280;23188;51.188;16.374;2023-03-04T02:52:54;100280.59;;;2.04;95.98
37304;BME280;23188;51.188;16.374;2023-03-04T02:56:59;100277.88;;;2.03;95.96
37304;BME280;23188;51.188;16.374;2023-03-04T03:01:06;100276.57;;;1.97;96.36
37304;BME280;23188;51.188;16.374;2023-03-04T03:05:09;100269.45;;;2.07;96.80
37304;BME280;23188;51.188;16.374;2023-03-04T03:09:14;100271.53;;;2.07;96.30
37304;BME280;23188;51.188;16.374;2023-03-04T03:13:17;100266.51;;;2.06;96.68
37304;BME280;23188;51.188;16.374;2023-03-04T03:17:21;100257.34;;;2.08;96.07
37304;BME280;23188;51.188;16.374;2023-03-04T03:21:24;100258.77;;;2.11;96.00
37304;BME280;23188;51.188;16.374;2023-03-04T03:25:27;100253.69;;;2.11;96.18
37304;BME280;23188;51.188;16.374;2023-03-04T03:29:30;100259.11;;;2.15;95.69
37304;BME280;23188;51.188;16.374;2023-03-04T03:33:34;100257.36;;;2.15;96.04
37304;BME280;23188;51.188;16.374;2023-03-04T03:37:37;100248.84;;;2.22;95.89
37304;BME280;23188;51.188;16.374;2023-03-04T03:41:40;100221.73;;;2.18;94.92
37304;BME280;23188;51.188;16.374;2023-03-04T03:45:44;100221.02;;;2.22;94.12
37304;BME280;23188;51.188;16.374;2023-03-04T03:49:47;100223.42;;;2.30;94.38
37304;BME280;23188;51.188;16.374;2023-03-04T03:53:51;100213.30;;;2.29;93.50
37304;BME280;23188;51.188;16.374;2023-03-04T03:57:54;100225.80;;;2.31;93.70
37304;BME280;23188;51.188;16.374;2023-03-04T04:01:58;100221.34;;;2.40;93.28
37304;BME280;23188;51.188;16.374;2023-03-04T04:06:01;100215.30;;;2.53;92.69
37304;BME280;23188;51.188;16.374;2023-03-04T04:10:05;100222.23;;;2.43;92.35
37304;BME280;23188;51.188;16.374;2023-03-04T04:14:11;100216.42;;;2.51;92.63
37304;BME280;23188;51.188;16.374;2023-03-04T04:18:15;100211.58;;;2.54;92.04
37304;BME280;23188;51.188;16.374;2023-03-04T04:22:19;100214.90;;;2.54;92.04
37304;BME280;23188;51.188;16.374;2023-03-04T04:26:22;100210.13;;;2.59;91.75
37304;BME280;23188;51.188;16.374;2023-03-04T04:30:25;100211.54;;;2.62;91.71
37304;BME280;23188;51.188;16.374;2023-03-04T04:34:28;100195.42;;;2.65;91.49
37304;BME280;23188;51.188;16.374;2023-03-04T04:38:32;100189.94;;;2.70;91.06
37304;BME280;23188;51.188;16.374;2023-03-04T04:42:35;100186.49;;;2.76;91.32
37304;BME280;23188;51.188;16.374;2023-03-04T04:46:39;100173.52;;;2.76;91.01
37304;BME280;23188;51.188;16.374;2023-03-04T04:50:42;100169.95;;;2.81;91.04
37304;BME280;23188;51.188;16.374;2023-03-04T04:54:46;100167.59;;;2.86;90.80
37304;BME280;23188;51.188;16.374;2023-03-04T04:58:49;100154.86;;;2.81;90.38
37304;BME280;23188;51.188;16.374;2023-03-04T05:02:52;100148.27;;;2.87;90.91
37304;BME280;23188;51.188;16.374;2023-03-04T05:06:56;100144.07;;;2.87;90.50
37304;BME280;23188;51.188;16.374;2023-03-04T05:11:00;100136.80;;;2.86;90.52
37304;BME280;23188;51.188;16.374;2023-03-04T05:15:04;100142.23;;;2.89;90.69
37304;BME280;23188;51.188;16.374;2023-03-04T05:19:07;100142.11;;;2.91;90.55
37304;BME280;23188;51.188;16.374;2023-03-04T05:23:11;100142.23;;;2.92;90.61
37304;BME280;23188;51.188;16.374;2023-03-04T05:27:14;100143.19;;;2.83;90.76
37304;BME280;23188;51.188;16.374;2023-03-04T05:31:17;100152.30;;;2.84;90.67
37304;BME280;23188;51.188;16.374;2023-03-04T05:35:21;100169.05;;;2.78;90.39
37304;BME280;23188;51.188;16.374;2023-03-04T05:39:24;100174.77;;;2.76;90.60
37304;BME280;23188;51.188;16.374;2023-03-04T05:43:28;100176.13;;;2.73;91.19
37304;BME280;23188;51.188;16.374;2023-03-04T05:47:31;100187.12;;;2.74;91.82
37304;BME280;23188;51.188;16.374;2023-03-04T05:51:34;100176.66;;;2.69;92.19
37304;BME280;23188;51.188;16.374;2023-03-04T05:55:38;100174.61;;;2.68;91.57
37304;BME280;23188;51.188;16.374;2023-03-04T05:59:41;100179.66;;;2.69;91.66
37304;BME280;23188;51.188;16.374;2023-03-04T06:03:45;100181.19;;;2.70;91.49
37304;BME280;23188;51.188;16.374;2023-03-04T06:07:51;100198.12;;;2.75;91.64
37304;BME280;23188;51.188;16.374;2023-03-04T06:11:54;100193.57;;;2.71;91.40
37304;BME280;23188;51.188;16.374;2023-03-04T06:15:58;100182.32;;;2.68;90.85
37304;BME280;23188;51.188;16.374;2023-03-04T06:20:01;100189.13;;;2.72;91.35
37304;BME280;23188;51.188;16.374;2023-03-04T06:24:06;100194.17;;;2.70;92.10
37304;BME280;23188;51.188;16.374;2023-03-04T06:28:09;100202.16;;;2.74;92.94
37304;BME280;23188;51.188;16.374;2023-03-04T06:32:12;100204.61;;;2.71;93.06
37304;BME280;23188;51.188;16.374;2023-03-04T06:36:15;100208.55;;;2.69;93.01
37304;BME280;23188;51.188;16.374;2023-03-04T06:40:19;100207.83;;;2.73;92.50
37304;BME280;23188;51.188;16.374;2023-03-04T06:44:22;100212.77;;;2.76;92.32
37304;BME280;23188;51.188;16.374;2023-03-04T06:48:25;100204.02;;;2.76;92.48
37304;BME280;23188;51.188;16.374;2023-03-04T06:52:29;100203.71;;;2.82;93.06
37304;BME280;23188;51.188;16.374;2023-03-04T06:56:33;100190.36;;;2.93;92.56
37304;BME280;23188;51.188;16.374;2023-03-04T07:00:36;100190.42;;;3.02;92.32
37304;BME280;23188;51.188;16.374;2023-03-04T07:04:39;100190.13;;;3.04;92.89
37304;BME280;23188;51.188;16.374;2023-03-04T07:08:42;100198.70;;;3.19;93.37
37304;BME280;23188;51.188;16.374;2023-03-04T07:12:46;100183.65;;;3.24;93.20
37304;BME280;23188;51.188;16.374;2023-03-04T07:16:49;100186.53;;;3.30;93.21
37304;BME280;23188;51.188;16.374;2023-03-04T07:20:52;100195.70;;;3.29;93.86
37304;BME280;23188;51.188;16.374;2023-03-04T07:24:56;100192.77;;;3.38;94.04
37304;BME280;23188;51.188;16.374;2023-03-04T07:28:59;100195.55;;;3.45;94.04
37304;BME280;23188;51.188;16.374;2023-03-04T07:33:02;100199.70;;;3.52;94.57
37304;BME280;23188;51.188;16.374;2023-03-04T07:37:06;100190.99;;;3.48;94.59
37304;BME280;23188;51.188;16.374;2023-03-04T07:41:10;100189.42;;;3.48;95.25
37304;BME280;23188;51.188;16.374;2023-03-04T07:45:13;100186.55;;;3.53;95.21
37304;BME280;23188;51.188;16.374;2023-03-04T07:49:16;100190.37;;;3.50;95.20
37304;BME280;23188;51.188;16.374;2023-03-04T07:53:19;100190.46;;;3.55;95.27
37304;BME280;23188;51.188;16.374;2023-03-04T07:57:22;100191.00;;;3.61;95.61
37304;BME280;23188;51.188;16.374;2023-03-04T08:01:29;100191.30;;;3.69;95.26
37304;BME280;23188;51.188;16.374;2023-03-04T08:05:34;100190.27;;;3.65;95.67
37304;BME280;23188;51.188;16.374;2023-03-04T08:09:38;100201.91;;;3.64;96.00
37304;BME280;23188;51.188;16.374;2023-03-04T08:13:41;100191.82;;;3.53;96.45
37304;BME280;23188;51.188;16.374;2023-03-04T08:17:45;100188.27;;;3.57;97.57
37304;BME280;23188;51.188;16.374;2023-03-04T08:21:48;100178.73;;;3.64;98.05
37304;BME280;23188;51.188;16.374;2023-03-04T08:25:51;100174.30;;;3.72;97.40
37304;BME280;23188;51.188;16.374;2023-03-04T08:29:54;100167.14;;;3.75;97.52
37304;BME280;23188;51.188;16.374;2023-03-04T08:34:02;100156.84;;;3.83;97.06
37304;BME280;23188;51.188;16.374;2023-03-04T08:38:05;100162.88;;;3.85;97.35
37304;BME280;23188;51.188;16.374;2023-03-04T08:42:09;100161.63;;;3.92;96.87
37304;BME280;23188;51.188;16.374;2023-03-04T08:46:12;100160.27;;;3.97;97.25
37304;BME280;23188;51.188;16.374;2023-03-04T08:50:16;100158.73;;;4.03;97.06
37304;BME280;23188;51.188;16.374;2023-03-04T08:54:19;100158.15;;;4.07;97.18
37304;BME280;23188;51.188;16.374;2023-03-04T08:58:22;100155.08;;;4.15;97.11
37304;BME280;23188;51.188;16.374;2023-03-04T09:02:26;100153.36;;;4.26;97.11
37304;BME280;23188;51.188;16.374;2023-03-04T09:06:29;100146.82;;;4.30;96.20
37304;BME280;23188;51.188;16.374;2023-03-04T09:10:36;100148.96;;;4.27;97.12
37304;BME280;23188;51.188;16.374;2023-03-04T09:14:39;100153.84;;;4.33;96.51
37304;BME280;23188;51.188;16.374;2023-03-04T09:18:42;100158.19;;;4.37;96.81
37304;BME280;23188;51.188;16.374;2023-03-04T09:22:46;100155.11;;;4.33;97.62
37304;BME280;23188;51.188;16.374;2023-03-04T09:26:50;100156.23;;;4.44;98.42
37304;BME280;23188;51.188;16.374;2023-03-04T09:30:54;100155.67;;;4.56;98.41
37304;BME280;23188;51.188;16.374;2023-03-04T09:34:57;100155.33;;;4.62;98.16
37304;BME280;23188;51.188;16.374;2023-03-04T09:39:02;100160.80;;;4.74;98.94
37304;BME280;23188;51.188;16.374;2023-03-04T09:43:18;100152.95;;;4.82;98.79
37304;BME280;23188;51.188;16.374;2023-03-04T09:47:23;100149.94;;;4.91;98.90
37304;BME280;23188;51.188;16.374;2023-03-04T09:55:49;100128.05;;;4.93;99.05
37304;BME280;23188;51.188;16.374;2023-03-04T10:13:18;100114.20;;;5.29;99.56
37304;BME280;23188;51.188;16.374;2023-03-04T10:17:39;100108.54;;;5.36;99.21
37304;BME280;23188;51.188;16.374;2023-03-04T10:21:47;100106.91;;;5.34;98.85
37304;BME280;23188;51.188;16.374;2023-03-04T10:25:51;100096.56;;;5.39;99.06
37304;BME280;23188;51.188;16.374;2023-03-04T10:29:57;100091.42;;;5.48;98.57
37304;BME280;23188;51.188;16.374;2023-03-04T10:34:03;100093.96;;;5.44;97.72
37304;BME280;23188;51.188;16.374;2023-03-04T10:38:08;100091.02;;;5.52;98.29
37304;BME280;23188;51.188;16.374;2023-03-04T10:46:19;100088.50;;;5.86;96.95
37304;BME280;23188;51.188;16.374;2023-03-04T10:50:26;100086.98;;;5.96;95.43
37304;BME280;23188;51.188;16.374;2023-03-04T10:58:42;100091.09;;;5.98;93.95
37304;BME280;23188;51.188;16.374;2023-03-04T11:02:47;100088.89;;;5.85;94.76
37304;BME280;23188;51.188;16.374;2023-03-04T11:06:51;100077.81;;;5.77;95.58
37304;BME280;23188;51.188;16.374;2023-03-04T11:10:54;100088.39;;;5.79;96.24
37304;BME280;23188;51.188;16.374;2023-03-04T11:14:58;100084.52;;;5.74;96.27
37304;BME280;23188;51.188;16.374;2023-03-04T11:19:05;100078.56;;;5.46;96.76
37304;BME280;23188;51.188;16.374;2023-03-04T11:23:16;100078.66;;;5.30;98.31
37304;BME280;23188;51.188;16.374;2023-03-04T11:27:29;100071.83;;;5.41;97.79
37304;BME280;23188;51.188;16.374;2023-03-04T11:31:41;100075.77;;;5.46;97.28
37304;BME280;23188;51.188;16.374;2023-03-04T11:35:56;100069.06;;;5.38;97.43
37304;BME280;23188;51.188;16.374;2023-03-04T11:40:13;100068.39;;;5.48;98.25
37304;BME280;23188;51.188;16.374;2023-03-04T11:44:18;100064.31;;;5.57;98.08
37304;BME280;23188;51.188;16.374;2023-03-04T12:02:03;100048.45;;;5.71;95.61
37304;BME280;23188;51.188;16.374;2023-03-04T12:11:08;100049.14;;;5.82;97.94
37304;BME280;23188;51.188;16.374;2023-03-04T12:34:00;100009.41;;;6.48;92.45
37304;BME280;23188;51.188;16.374;2023-03-04T12:47:12;100008.91;;;6.27;91.38
37304;BME280;23188;51.188;16.374;2023-03-04T12:51:36;100010.18;;;6.31;92.40
37304;BME280;23188;51.188;16.374;2023-03-04T12:55:44;100012.22;;;6.27;92.21
37304;BME280;23188;51.188;16.374;2023-03-04T13:13:40;100008.02;;;6.37;90.00
37304;BME280;23188;51.188;16.374;2023-03-04T13:17:51;99999.88;;;6.25;92.06
37304;BME280;23188;51.188;16.374;2023-03-04T13:21:56;100001.31;;;6.24;92.89
37304;BME280;23188;51.188;16.374;2023-03-04T13:34:50;100004.52;;;6.16;98.05
37304;BME280;23188;51.188;16.374;2023-03-04T13:39:23;100003.86;;;6.20;98.20
37304;BME280;23188;51.188;16.374;2023-03-04T13:43:38;99997.91;;;6.28;98.82
37304;BME280;23188;51.188;16.374;2023-03-04T13:47:43;99992.12;;;6.41;97.11
37304;BME280;23188;51.188;16.374;2023-03-04T13:51:47;99990.10;;;6.47;96.16
37304;BME280;23188;51.188;16.374;2023-03-04T13:56:09;99985.86;;;6.47;94.96
37304;BME280;23188;51.188;16.374;2023-03-04T14:00:14;99986.96;;;6.52;94.48
37304;BME280;23188;51.188;16.374;2023-03-04T14:04:20;99983.86;;;6.40;92.65
37304;BME280;23188;51.188;16.374;2023-03-04T14:08:24;99981.73;;;6.35;91.06
37304;BME280;23188;51.188;16.374;2023-03-04T14:12:33;99986.48;;;6.33;90.80
37304;BME280;23188;51.188;16.374;2023-03-04T14:16:45;99989.34;;;6.32;89.10
37304;BME280;23188;51.188;16.374;2023-03-04T14:20:50;99989.43;;;6.31;87.43
37304;BME280;23188;51.188;16.374;2023-03-04T14:29:28;99979.27;;;6.32;90.04
37304;BME280;23188;51.188;16.374;2023-03-04T14:33:32;99981.41;;;6.32;92.40
37304;BME280;23188;51.188;16.374;2023-03-04T14:37:48;99981.53;;;6.23;93.11
37304;BME280;23188;51.188;16.374;2023-03-04T14:41:58;99987.45;;;6.08;93.30
37304;BME280;23188;51.188;16.374;2023-03-04T14:46:07;99978.65;;;6.13;93.86
37304;BME280;23188;51.188;16.374;2023-03-04T14:54:42;99979.08;;;6.23;94.16
37304;BME280;23188;51.188;16.374;2023-03-04T14:58:53;99982.87;;;6.26;94.95
37304;BME280;23188;51.188;16.374;2023-03-04T15:03:50;99977.53;;;6.24;93.89
37304;BME280;23188;51.188;16.374;2023-03-04T15:07:35;99977.39;;;6.24;94.78
37304;BME280;23188;51.188;16.374;2023-03-04T15:11:49;99971.42;;;6.19;95.80
37304;BME280;23188;51.188;16.374;2023-03-04T15:15:59;99970.78;;;6.15;97.05
37304;BME280;23188;51.188;16.374;2023-03-04T15:24:09;99974.11;;;6.07;98.02
37304;BME280;23188;51.188;16.374;2023-03-04T15:28:17;99970.22;;;6.02;98.95
37304;BME280;23188;51.188;16.374;2023-03-04T15:32:22;99973.54;;;5.97;99.50
37304;BME280;23188;51.188;16.374;2023-03-04T15:36:26;99971.73;;;5.90;100.00
37304;BME280;23188;51.188;16.374;2023-03-04T15:40:31;99973.77;;;5.94;100.00
37304;BME280;23188;51.188;16.374;2023-03-04T15:44:35;99976.09;;;5.88;99.94
37304;BME280;23188;51.188;16.374;2023-03-04T15:48:37;99975.92;;;5.90;99.97
37304;BME280;23188;51.188;16.374;2023-03-04T15:52:41;99976.11;;;5.93;100.00
37304;BME280;23188;51.188;16.374;2023-03-04T15:56:44;99972.16;;;5.91;100.00
37304;BME280;23188;51.188;16.374;2023-03-04T16:00:47;99970.77;;;5.88;100.00
37304;BME280;23188;51.188;16.374;2023-03-04T16:04:50;99971.73;;;5.87;100.00
37304;BME280;23188;51.188;16.374;2023-03-04T16:08:53;99974.27;;;5.94;99.92
37304;BME280;23188;51.188;16.374;2023-03-04T16:12:57;99973.84;;;6.04;99.68
37304;BME280;23188;51.188;16.374;2023-03-04T16:17:00;99974.42;;;6.05;99.91
37304;BME280;23188;51.188;16.374;2023-03-04T16:21:03;99977.10;;;5.99;99.59
37304;BME280;23188;51.188;16.374;2023-03-04T16:25:15;99977.60;;;6.02;99.19
37304;BME280;23188;51.188;16.374;2023-03-04T16:29:19;99978.86;;;5.94;99.11
37304;BME280;23188;51.188;16.374;2023-03-04T16:33:22;99974.93;;;5.81;98.94
37304;BME280;23188;51.188;16.374;2023-03-04T16:37:25;99973.48;;;5.79;97.92
37304;BME280;23188;51.188;16.374;2023-03-04T16:41:28;99983.41;;;5.78;97.61
37304;BME280;23188;51.188;16.374;2023-03-04T16:45:32;99991.44;;;5.77;97.86
37304;BME280;23188;51.188;16.374;2023-03-04T16:49:37;100000.69;;;5.70;98.66
37304;BME280;23188;51.188;16.374;2023-03-04T16:53:43;99996.04;;;5.63;98.91
37304;BME280;23188;51.188;16.374;2023-03-04T16:57:49;100010.72;;;5.59;98.89
37304;BME280;23188;51.188;16.374;2023-03-04T17:01:52;100011.31;;;5.41;99.47
37304;BME280;23188;51.188;16.374;2023-03-04T17:05:56;100016.61;;;5.32;99.95
37304;BME280;23188;51.188;16.374;2023-03-04T17:09:59;100022.02;;;5.31;100.00
37304;BME280;23188;51.188;16.374;2023-03-04T17:14:02;100028.27;;;5.31;100.00
37304;BME280;23188;51.188;16.374;2023-03-04T17:18:05;100029.39;;;5.37;99.94
37304;BME280;23188;51.188;16.374;2023-03-04T17:22:08;100030.63;;;5.36;98.80
37304;BME280;23188;51.188;16.374;2023-03-04T17:26:11;100037.54;;;5.33;98.39
37304;BME280;23188;51.188;16.374;2023-03-04T17:30:16;100032.61;;;5.36;97.43
37304;BME280;23188;51.188;16.374;2023-03-04T17:34:20;100031.81;;;5.28;97.67
37304;BME280;23188;51.188;16.374;2023-03-04T17:38:23;100026.59;;;5.30;98.44
37304;BME280;23188;51.188;16.374;2023-03-04T17:42:26;100033.06;;;5.31;98.74
37304;BME280;23188;51.188;16.374;2023-03-04T17:46:29;100034.03;;;5.21;99.21
37304;BME280;23188;51.188;16.374;2023-03-04T17:50:32;100036.45;;;5.22;99.26
37304;BME280;23188;51.188;16.374;2023-03-04T17:54:35;100042.60;;;5.19;99.09
37304;BME280;23188;51.188;16.374;2023-03-04T17:58:39;100040.77;;;5.15;98.65
37304;BME280;23188;51.188;16.374;2023-03-04T18:02:43;100041.04;;;5.13;98.19
37304;BME280;23188;51.188;16.374;2023-03-04T18:06:46;100037.02;;;5.13;97.17
37304;BME280;23188;51.188;16.374;2023-03-04T18:10:50;100037.06;;;5.09;97.16
37304;BME280;23188;51.188;16.374;2023-03-04T18:14:53;100042.89;;;5.12;96.19
37304;BME280;23188;51.188;16.374;2023-03-04T18:18:59;100043.05;;;5.12;96.17
37304;BME280;23188;51.188;16.374;2023-03-04T18:23:03;100043.88;;;5.13;94.41
37304;BME280;23188;51.188;16.374;2023-03-04T18:27:06;100049.04;;;5.15;93.76
37304;BME280;23188;51.188;16.374;2023-03-04T18:31:09;100048.42;;;5.10;95.37
37304;BME280;23188;51.188;16.374;2023-03-04T18:35:13;100046.36;;;5.12;95.99
37304;BME280;23188;51.188;16.374;2023-03-04T18:39:17;100050.62;;;5.06;95.68
37304;BME280;23188;51.188;16.374;2023-03-04T18:43:25;100052.29;;;4.99;95.59
37304;BME280;23188;51.188;16.374;2023-03-04T18:47:30;100049.85;;;4.96;95.19
37304;BME280;23188;51.188;16.374;2023-03-04T18:51:35;100056.96;;;4.91;96.16
37304;BME280;23188;51.188;16.374;2023-03-04T18:55:38;100057.58;;;4.90;96.03
37304;BME280;23188;51.188;16.374;2023-03-04T19:03:55;100058.50;;;4.90;95.55
37304;BME280;23188;51.188;16.374;2023-03-04T19:08:00;100059.86;;;4.84;95.52
37304;BME280;23188;51.188;16.374;2023-03-04T19:12:04;100065.31;;;4.87;95.77
37304;BME280;23188;51.188;16.374;2023-03-04T19:16:08;100065.69;;;4.84;96.74
37304;BME280;23188;51.188;16.374;2023-03-04T19:20:12;100064.88;;;4.83;96.54
37304;BME280;23188;51.188;16.374;2023-03-04T19:24:16;100067.96;;;4.81;97.03
37304;BME280;23188;51.188;16.374;2023-03-04T19:28:18;100069.77;;;4.80;97.29
37304;BME280;23188;51.188;16.374;2023-03-04T19:32:21;100069.27;;;4.80;97.64
37304;BME280;23188;51.188;16.374;2023-03-04T19:36:25;100066.08;;;4.80;97.70
37304;BME280;23188;51.188;16.374;2023-03-04T19:40:28;100069.47;;;4.79;97.66
37304;BME280;23188;51.188;16.374;2023-03-04T19:44:31;100071.64;;;4.79;97.60
37304;BME280;23188;51.188;16.374;2023-03-04T19:48:35;100077.04;;;4.85;96.37
37304;BME280;23188;51.188;16.374;2023-03-04T19:52:38;100083.02;;;4.87;95.53
37304;BME280;23188;51.188;16.374;2023-03-04T19:56:41;100085.83;;;4.88;94.96
37304;BME280;23188;51.188;16.374;2023-03-04T20:00:44;100084.70;;;4.86;94.67
37304;BME280;23188;51.188;16.374;2023-03-04T20:04:47;100090.00;;;4.86;94.83
37304;BME280;23188;51.188;16.374;2023-03-04T20:08:54;100095.41;;;4.92;95.07
37304;BME280;23188;51.188;16.374;2023-03-04T20:12:57;100097.96;;;4.91;95.04
37304;BME280;23188;51.188;16.374;2023-03-04T20:17:02;100099.63;;;4.92;95.21
37304;BME280;23188;51.188;16.374;2023-03-04T20:21:06;100102.61;;;4.95;95.80
37304;BME280;23188;51.188;16.374;2023-03-04T20:25:09;100109.13;;;5.07;94.05
37304;BME280;23188;51.188;16.374;2023-03-04T20:29:12;100106.45;;;5.10;90.64
37304;BME280;23188;51.188;16.374;2023-03-04T20:33:15;100107.88;;;5.10;89.73
37304;BME280;23188;51.188;16.374;2023-03-04T20:37:19;100106.90;;;5.06;89.57
37304;BME280;23188;51.188;16.374;2023-03-04T20:41:23;100109.14;;;5.00;89.57
37304;BME280;23188;51.188;16.374;2023-03-04T20:45:27;100109.45;;;5.01;89.76
37304;BME280;23188;51.188;16.374;2023-03-04T20:49:31;100106.58;;;4.99;89.88
37304;BME280;23188;51.188;16.374;2023-03-04T20:53:34;100107.61;;;4.94;89.39
37304;BME280;23188;51.188;16.374;2023-03-04T20:57:37;100107.89;;;4.92;89.00
37304;BME280;23188;51.188;16.374;2023-03-04T21:01:42;100107.30;;;4.84;87.38
37304;BME280;23188;51.188;16.374;2023-03-04T21:05:46;100108.33;;;4.82;86.52
37304;BME280;23188;51.188;16.374;2023-03-04T21:09:49;100110.23;;;4.80;85.86
37304;BME280;23188;51.188;16.374;2023-03-04T21:13:53;100113.98;;;4.69;84.85
37304;BME280;23188;51.188;16.374;2023-03-04T21:17:58;100116.85;;;4.56;82.43
37304;BME280;23188;51.188;16.374;2023-03-04T21:22:02;100112.09;;;4.42;80.69
37304;BME280;23188;51.188;16.374;2023-03-04T21:26:05;100114.10;;;4.40;81.20
37304;BME280;23188;51.188;16.374;2023-03-04T21:30:10;100116.02;;;4.41;82.39
37304;BME280;23188;51.188;16.374;2023-03-04T21:34:16;100115.41;;;4.36;83.45
37304;BME280;23188;51.188;16.374;2023-03-04T21:38:19;100114.92;;;4.35;84.05
37304;BME280;23188;51.188;16.374;2023-03-04T21:42:22;100112.84;;;4.32;83.02
37304;BME280;23188;51.188;16.374;2023-03-04T21:46:25;100111.36;;;4.30;83.82
37304;BME280;23188;51.188;16.374;2023-03-04T21:50:28;100109.88;;;4.28;84.63
37304;BME280;23188;51.188;16.374;2023-03-04T22:23:44;100094.09;;;3.82;84.52
37304;BME280;23188;51.188;16.374;2023-03-04T22:27:46;100093.27;;;3.78;84.70
37304;BME280;23188;51.188;16.374;2023-03-04T22:31:55;100093.36;;;3.76;85.88
37304;BME280;23188;51.188;16.374;2023-03-04T22:35:57;100091.94;;;3.80;85.52
37304;BME280;23188;51.188;16.374;2023-03-04T22:44:56;100087.75;;;3.82;82.93
37304;BME280;23188;51.188;16.374;2023-03-04T22:49:02;100091.14;;;3.84;79.65
37304;BME280;23188;51.188;16.374;2023-03-04T22:53:07;100088.36;;;3.84;77.43
37304;BME280;23188;51.188;16.374;2023-03-04T22:57:11;100095.34;;;3.82;74.09
37304;BME280;23188;51.188;16.374;2023-03-04T23:01:16;100094.38;;;3.74;71.84
37304;BME280;23188;51.188;16.374;2023-03-04T23:10:48;100096.06;;;3.56;73.85
37304;BME280;23188;51.188;16.374;2023-03-04T23:14:51;100093.62;;;3.46;74.49
37304;BME280;23188;51.188;16.374;2023-03-04T23:18:54;100090.23;;;3.41;73.31
37304;BME280;23188;51.188;16.374;2023-03-04T23:23:00;100087.30;;;3.37;73.23
37304;BME280;23188;51.188;16.374;2023-03-04T23:27:03;100085.91;;;3.30;72.31
37304;BME280;23188;51.188;16.374;2023-03-04T23:31:06;100083.59;;;3.31;71.17
37304;BME280;23188;51.188;16.374;2023-03-04T23:35:35;100082.66;;;3.22;71.30
37304;BME280;23188;51.188;16.374;2023-03-04T23:44:07;100075.83;;;3.22;71.55
37304;BME280;23188;51.188;16.374;2023-03-04T23:48:11;100071.70;;;3.21;71.85
37304;BME280;23188;51.188;16.374;2023-03-04T23:52:41;100071.61;;;3.25;72.18
37304;BME280;23188;51.188;16.374;2023-03-04T23:56:44;100069.67;;;3.29;71.27
